Item Display Status Serial CT Sensor

Mooring Depth: 1 m

 

Deployed Sensor

  • Serial Number: 12887
  • NDBC Property Number: 39266
  • Start Date: 5/7/2015 (16:23:27 Z)
  • End Date: 7/20/2016 (20:02:00 Z)
Water Temperature [°C]     6 entries per hour
Showing data from 8/30/2015 (01:40:00 Z) to 8/29/2015 (00:00:01 Z)
Previous Next [ Day | 3-Days | 7-Days ]
First Last
Prev [ Day | 3-Days | 7-Days ] Next
First Last

Start Time:     :
End Time:     :     
Time (in GMT) :00 :50 :40 :30 :20 :10
Previous Next [ Day | 3-Days | 7-Days ]
First Last
Prev [ Day | 3-Days | 7-Days ] Next
First Last


123 => good data
MM => data is determined as missing
-- => data not received/configured
Back to Top Back to Top
8/30/2015 02:00 to 1:10 -- -- 29.910 29.925 29.898 29.915
8/30/2015 01:00 to 0:10 29.935 29.925 29.916 29.914 29.921 29.920
8/30/2015 00:00 to 23:10 29.931 29.925 29.936 29.939 29.949 29.938
8/29/2015 23:00 to 22:10 29.920 29.931 29.941 29.936 29.929 29.901
8/29/2015 22:00 to 21:10 -- 29.893 29.887 29.888 29.883 29.882
8/29/2015 21:00 to 20:10 29.870 29.872 29.874 29.871 29.871 29.861
8/29/2015 20:00 to 19:10 29.870 29.865 29.869 29.871 29.864 29.868
8/29/2015 19:00 to 18:10 29.874 29.875 29.857 29.886 29.884 29.883
8/29/2015 18:00 to 17:10 29.882 29.895 29.886 29.900 29.903 29.898
8/29/2015 17:00 to 16:10 29.853 29.872 29.874 29.862 29.856 29.833
8/29/2015 16:00 to 15:10 29.858 29.844 29.873 29.852 29.819 29.818
8/29/2015 15:00 to 14:10 29.827 29.822 29.855 29.862 29.847 29.865
8/29/2015 14:00 to 13:10 29.851 29.809 29.854 29.836 29.823 29.838
8/29/2015 13:00 to 12:10 29.865 29.859 29.865 29.862 29.848 29.847
8/29/2015 12:00 to 11:10 29.850 29.845 29.857 29.815 29.841 29.826
8/29/2015 11:00 to 10:10 29.867 29.899 29.838 29.860 29.845 29.844
8/29/2015 10:00 to 9:10 29.836 29.828 29.863 29.825 29.836 29.834
8/29/2015 09:00 to 8:10 29.819 29.838 29.830 29.841 29.856 29.852
8/29/2015 08:00 to 7:10 29.860 29.847 29.847 29.863 29.854 29.850
8/29/2015 07:00 to 6:10 29.837 29.860 29.852 29.856 29.811 29.825
8/29/2015 06:00 to 5:10 29.814 29.805 29.794 29.807 29.794 29.786
8/29/2015 05:00 to 4:10 29.812 29.805 29.786 29.790 29.773 29.748
8/29/2015 04:00 to 3:10 29.760 29.747 29.737 29.700 29.665 29.629
8/29/2015 03:00 to 2:10 29.600 29.609 29.564 29.592 29.516 29.535
8/29/2015 02:00 to 1:10 29.476 29.492 29.602 29.593 29.532 29.449
8/29/2015 01:00 to 0:10 29.519 29.498 29.427 29.501 29.536 29.497

 

 

 

Conductivity [S/m]     6 entries per hour
Showing data from 8/30/2015 (01:40:00 Z) to 8/29/2015 (00:00:01 Z)
Previous Next [ Day | 3-Days | 7-Days ]
First Last
Prev [ Day | 3-Days | 7-Days ] Next
First Last

Start Time:     :
End Time:     :     
Time (in GMT) :00 :50 :40 :30 :20 :10
Previous Next [ Day | 3-Days | 7-Days ]
First Last
Prev [ Day | 3-Days | 7-Days ] Next
First Last


123 => good data
MM => data is determined as missing
-- => data not received/configured
Back to Top Back to Top
8/30/2015 02:00 to 1:10 -- -- 5.79991 5.80107 5.79380 5.80065
8/30/2015 01:00 to 0:10 5.80275 5.80175 5.80048 5.80095 5.80191 5.80261
8/30/2015 00:00 to 23:10 5.80387 5.80326 5.80450 5.80545 5.80717 5.80563
8/29/2015 23:00 to 22:10 5.80309 5.80524 5.80626 5.80556 5.80448 5.80051
8/29/2015 22:00 to 21:10 5.80105 5.80030 5.79968 5.79937 5.79843 5.79846
8/29/2015 21:00 to 20:10 5.79690 5.79674 5.79749 5.79726 5.79637 5.79529
8/29/2015 20:00 to 19:10 5.79587 5.79544 5.79605 5.79573 5.79576 5.79597
8/29/2015 19:00 to 18:10 5.79717 5.79736 5.79528 5.79978 5.80028 5.79924
8/29/2015 18:00 to 17:10 5.80000 5.80173 5.79944 5.80090 5.80077 5.80037
8/29/2015 17:00 to 16:10 5.79427 5.79589 5.79607 5.79302 5.79383 5.78865
8/29/2015 16:00 to 15:10 5.79124 5.78964 5.79264 5.78886 5.78375 5.78158
8/29/2015 15:00 to 14:10 5.78291 5.78409 5.78755 5.78806 5.78683 5.78789
8/29/2015 14:00 to 13:10 5.78609 5.78046 5.78695 5.78447 5.78241 5.78542
8/29/2015 13:00 to 12:10 5.78801 5.78821 5.78864 5.78729 5.78543 5.78490
8/29/2015 12:00 to 11:10 5.78519 5.78417 5.78576 5.77845 5.78336 5.78261
8/29/2015 11:00 to 10:10 5.78699 5.79246 5.78228 5.78636 5.78415 5.78402
8/29/2015 10:00 to 9:10 5.78244 5.78171 5.78587 5.78026 5.78214 5.78266
8/29/2015 09:00 to 8:10 5.78040 5.78294 5.78147 5.78412 5.78552 5.78472
8/29/2015 08:00 to 7:10 5.78656 5.78539 5.78497 5.78664 5.78615 5.78536
8/29/2015 07:00 to 6:10 5.78367 5.78554 5.78445 5.78418 5.77798 5.77973
8/29/2015 06:00 to 5:10 5.77686 5.77478 5.77439 5.77414 5.77249 5.76942
8/29/2015 05:00 to 4:10 5.77303 5.76970 5.76729 5.76694 5.76244 5.75783
8/29/2015 04:00 to 3:10 5.75929 5.75480 5.74945 5.73784 5.72983 5.71809
8/29/2015 03:00 to 2:10 5.70923 5.70494 5.69338 5.69784 5.67544 5.68063
8/29/2015 02:00 to 1:10 5.66331 5.66924 5.69364 5.69537 5.66966 5.64594
8/29/2015 01:00 to 0:10 5.65883 5.65540 5.64381 5.65242 5.66240 5.65140

 

 

 

Salinity [psu]     6 entries per hour
Showing data from 8/30/2015 (01:40:00 Z) to 8/29/2015 (00:00:01 Z)
Previous Next [ Day | 3-Days | 7-Days ]
First Last
Prev [ Day | 3-Days | 7-Days ] Next
First Last

Start Time:     :
End Time:     :     
Time (in GMT) :00 :50 :40 :30 :20 :10
Previous Next [ Day | 3-Days | 7-Days ]
First Last
Prev [ Day | 3-Days | 7-Days ] Next
First Last


123 => good data
MM => data is determined as missing
-- => data not received/configured
Back to Top Back to Top
8/30/2015 02:00 to 1:10 -- -- 34.82 34.82 34.79 34.82
8/30/2015 01:00 to 0:10 34.82 34.82 34.82 34.83 34.83 34.83
8/30/2015 00:00 to 23:10 34.83 34.83 34.83 34.84 34.84 34.84
8/29/2015 23:00 to 22:10 34.84 34.84 34.84 34.84 34.84 34.83
8/29/2015 22:00 to 21:10 -- 34.84 34.84 34.83 34.83 34.83
8/29/2015 21:00 to 20:10 34.83 34.83 34.83 34.83 34.83 34.83
8/29/2015 20:00 to 19:10 34.82 34.82 34.83 34.82 34.83 34.83
8/29/2015 19:00 to 18:10 34.83 34.83 34.83 34.84 34.84 34.84
8/29/2015 18:00 to 17:10 34.84 34.85 34.84 34.84 34.83 34.83
8/29/2015 17:00 to 16:10 34.83 34.82 34.82 34.81 34.82 34.80
8/29/2015 16:00 to 15:10 34.80 34.80 34.80 34.79 34.78 34.77
8/29/2015 15:00 to 14:10 34.77 34.78 34.78 34.78 34.78 34.77
8/29/2015 14:00 to 13:10 34.77 34.76 34.78 34.77 34.77 34.78
8/29/2015 13:00 to 12:10 34.77 34.78 34.78 34.77 34.77 34.77
8/29/2015 12:00 to 11:10 34.77 34.76 34.77 34.75 34.76 34.77
8/29/2015 11:00 to 10:10 34.77 34.78 34.75 34.77 34.76 34.76
8/29/2015 10:00 to 9:10 34.76 34.76 34.76 34.75 34.76 34.76
8/29/2015 09:00 to 8:10 34.76 34.76 34.76 34.77 34.76 34.76
8/29/2015 08:00 to 7:10 34.77 34.77 34.77 34.77 34.77 34.77
8/29/2015 07:00 to 6:10 34.77 34.76 34.76 34.75 34.75 34.75
8/29/2015 06:00 to 5:10 34.74 34.73 34.73 34.72 34.72 34.71
8/29/2015 05:00 to 4:10 34.71 34.69 34.69 34.69 34.67 34.65
8/29/2015 04:00 to 3:10 34.66 34.63 34.61 34.55 34.52 34.47
8/29/2015 03:00 to 2:10 34.43 34.39 34.35 34.36 34.26 34.28
8/29/2015 02:00 to 1:10 34.21 34.24 34.32 34.34 34.21 34.11
8/29/2015 01:00 to 0:10 34.15 34.14 34.11 34.11 34.16 34.11